Time;durP1;ratioP1;P1;durP2;ratioP2;P2;SDS_P1;SDS_P2;PMS_P1;PMS_P2;Temp;Humidity;BMP_temperature;BMP_pressure;BME280_temperature;BME280_humidity;BME280_pressure;Samples;Min_cycle;Max_cycle;Signal;HPM_P1;HPM_P2
2023/12/12 00:02:23;;;;;;;21.85;9.93;;;;;;;5.81;100.00;97191.16;5131589;27;20023;-79
2023/12/12 00:04:49;;;;;;;24.80;11.02;;;;;;;6.22;100.00;97186.47;5133054;27;20035;-79
2023/12/12 00:07:15;;;;;;;13.82;7.45;;;;;;;6.21;100.00;97180.31;5115656;27;20058;-78
2023/12/12 00:09:41;;;;;;;11.90;6.15;;;;;;;6.32;100.00;97193.03;5134897;27;20023;-79
2023/12/12 00:12:07;;;;;;;19.48;9.48;;;;;;;6.25;100.00;97196.94;5134524;27;20038;-79
2023/12/12 00:14:33;;;;;;;23.73;11.90;;;;;;;6.24;100.00;97195.22;5112390;27;20027;-79
2023/12/12 00:16:58;;;;;;;23.02;10.57;;;;;;;6.45;100.00;97207.41;5131180;27;20035;-79
2023/12/12 00:19:24;;;;;;;23.75;10.02;;;;;;;6.21;100.00;97206.00;5130772;27;20113;-78
2023/12/12 00:21:50;;;;;;;17.85;9.40;;;;;;;6.27;100.00;97205.69;5132469;27;20035;-79
2023/12/12 00:24:16;;;;;;;24.48;8.90;;;;;;;6.41;100.00;97213.81;5128849;27;20062;-79
2023/12/12 00:26:43;;;;;;;17.80;8.80;;;;;;;6.41;100.00;97219.13;5117499;27;20022;-79
2023/12/12 00:29:09;;;;;;;14.07;6.40;;;;;;;6.19;100.00;97187.47;5134386;27;20029;-79
2023/12/12 00:31:34;;;;;;;14.35;6.07;;;;;;;5.98;100.00;97172.63;5112879;27;20027;-79
2023/12/12 00:34:00;;;;;;;10.40;5.28;;;;;;;6.14;100.00;97168.28;5112478;27;20022;-80
2023/12/12 00:36:26;;;;;;;13.27;6.82;;;;;;;6.35;100.00;97161.00;5133899;27;20080;-78
2023/12/12 00:38:52;;;;;;;17.15;7.80;;;;;;;6.42;100.00;97168.59;5134231;27;20416;-80
2023/12/12 00:41:17;;;;;;;13.35;6.38;;;;;;;6.31;100.00;97176.25;5116848;27;20019;-79
2023/12/12 00:43:44;;;;;;;12.18;6.18;;;;;;;6.37;100.00;97164.44;5130558;27;20027;-79
2023/12/12 00:46:10;;;;;;;11.88;5.88;;;;;;;6.44;100.00;97152.56;5132059;27;20019;-79
2023/12/12 00:48:36;;;;;;;11.07;5.45;;;;;;;6.42;100.00;97141.16;5130555;27;20071;-79
2023/12/12 00:51:01;;;;;;;9.60;4.80;;;;;;;6.27;100.00;97147.28;5130572;27;20106;-80
2023/12/12 00:53:27;;;;;;;10.20;4.57;;;;;;;6.44;100.00;97126.00;5134173;27;20034;-80
2023/12/12 00:55:53;;;;;;;8.00;4.72;;;;;;;6.65;100.00;97124.00;5133930;27;20046;-80
2023/12/12 00:58:18;;;;;;;9.20;5.00;;;;;;;6.82;100.00;97127.50;5110973;27;20023;-80
2023/12/12 01:00:44;;;;;;;12.13;4.95;;;;;;;6.80;100.00;97110.75;5116228;27;20473;-79
2023/12/12 01:03:10;;;;;;;8.02;3.92;;;;;;;6.97;100.00;97105.41;5116043;27;20426;-79
2023/12/12 01:05:36;;;;;;;9.18;4.80;;;;;;;7.13;100.00;97112.53;5133531;27;20022;-78
2023/12/12 01:08:02;;;;;;;9.38;5.20;;;;;;;7.24;100.00;97121.63;5133618;27;20509;-79
2023/12/12 01:10:27;;;;;;;11.48;5.15;;;;;;;7.16;100.00;97123.00;5133388;27;20018;-80
2023/12/12 01:12:53;;;;;;;10.45;5.45;;;;;;;7.13;100.00;97129.34;5133534;27;20026;-79
2023/12/12 01:15:19;;;;;;;9.75;5.25;;;;;;;7.25;100.00;97143.75;5149266;27;20068;-79
2023/12/12 01:17:44;;;;;;;10.60;5.90;;;;;;;7.15;100.00;97137.22;5133397;27;20503;-79
2023/12/12 01:20:10;;;;;;;17.75;8.75;;;;;;;7.23;100.00;97145.66;5133679;27;20432;-79
2023/12/12 01:22:36;;;;;;;29.35;11.52;;;;;;;7.05;100.00;97140.38;5133504;27;20034;-80
2023/12/12 01:25:03;;;;;;;24.35;10.93;;;;;;;7.18;100.00;97147.69;5133413;27;20109;-80
2023/12/12 01:27:29;;;;;;;22.45;10.20;;;;;;;7.16;100.00;97154.91;5113816;27;20034;-80
2023/12/12 01:29:55;;;;;;;21.30;10.93;;;;;;;6.92;100.00;97163.25;5110610;27;20023;-80
2023/12/12 01:32:21;;;;;;;20.95;10.45;;;;;;;6.79;100.00;97174.63;5133278;27;20423;-80
2023/12/12 01:34:46;;;;;;;27.63;12.50;;;;;;;6.77;100.00;97180.03;5133414;27;20029;-80
2023/12/12 01:37:12;;;;;;;26.08;12.57;;;;;;;6.79;100.00;97183.47;5152676;27;20046;-79
2023/12/12 01:39:38;;;;;;;24.27;10.95;;;;;;;6.74;100.00;97171.34;5115864;27;20118;-79
2023/12/12 01:42:04;;;;;;;23.15;10.65;;;;;;;6.85;100.00;97182.28;5133235;27;20030;-80
2023/12/12 01:44:29;;;;;;;19.38;10.27;;;;;;;6.94;100.00;97173.81;5106789;27;20075;-80
2023/12/12 01:46:55;;;;;;;20.20;10.38;;;;;;;6.48;100.00;97157.66;5114071;27;20062;-79
2023/12/12 01:49:21;;;;;;;17.40;9.05;;;;;;;6.35;100.00;97168.97;5151910;27;20026;-79
2023/12/12 01:51:46;;;;;;;19.20;8.18;;;;;;;6.43;100.00;97167.63;5133064;27;20030;-79
2023/12/12 01:54:13;;;;;;;22.48;8.27;;;;;;;6.66;100.00;97160.28;5116260;27;20087;-80
2023/12/12 01:56:38;;;;;;;21.38;9.20;;;;;;;6.75;100.00;97163.31;5133412;27;20402;-79
2023/12/12 01:59:04;;;;;;;18.75;9.02;;;;;;;6.57;100.00;97153.66;5129942;27;20039;-80
2023/12/12 02:01:30;;;;;;;19.42;8.93;;;;;;;6.53;100.00;97139.66;5098510;28;20031;-80
2023/12/12 02:03:56;;;;;;;15.73;7.93;;;;;;;6.68;100.00;97129.16;5113902;27;20421;-80
2023/12/12 02:06:22;;;;;;;21.63;9.05;;;;;;;6.85;100.00;97119.34;5133035;27;20480;-80
2023/12/12 02:08:52;;;;;;;24.23;10.20;;;;;;;6.95;100.00;97112.56;5113021;27;20034;-80
2023/12/12 02:11:18;;;;;;;26.98;11.68;;;;;;;6.99;100.00;97106.16;5112581;28;20027;-79
2023/12/12 02:13:44;;;;;;;24.00;11.45;;;;;;;7.00;100.00;97091.06;5112748;28;20038;-79
2023/12/12 02:16:11;;;;;;;18.00;8.20;;;;;;;6.98;100.00;97085.00;5115540;27;20040;-79
2023/12/12 02:18:37;;;;;;;39.20;14.77;;;;;;;7.19;100.00;97078.47;5120973;27;20447;-80
2023/12/12 02:21:03;;;;;;;52.88;20.80;;;;;;;7.19;100.00;97090.91;5116149;27;20088;-80
2023/12/12 02:23:29;;;;;;;28.77;10.68;;;;;;;7.28;100.00;97083.28;5125077;27;20035;-80
2023/12/12 02:25:56;;;;;;;30.02;10.57;;;;;;;7.29;100.00;97084.13;5119272;27;20033;-79
2023/12/12 02:28:22;;;;;;;31.88;13.10;;;;;;;7.07;100.00;97101.25;5116637;27;20124;-79
2023/12/12 02:30:48;;;;;;;22.60;9.20;;;;;;;6.75;100.00;97106.63;5098970;27;20084;-79
2023/12/12 02:33:13;;;;;;;16.50;7.60;;;;;;;6.49;100.00;97127.47;5099331;27;20474;-78
2023/12/12 02:35:39;;;;;;;11.55;7.18;;;;;;;6.39;100.00;97128.91;5099060;27;20387;-79
2023/12/12 02:38:05;;;;;;;16.38;7.50;;;;;;;6.05;100.00;97136.03;5131315;27;20107;-80
2023/12/12 02:40:30;;;;;;;12.95;6.85;;;;;;;6.23;100.00;97161.63;5119026;27;20347;-80
2023/12/12 02:42:56;;;;;;;15.43;6.65;;;;;;;5.95;100.00;97140.94;5136356;27;20521;-79
2023/12/12 02:45:22;;;;;;;18.60;7.65;;;;;;;6.03;100.00;97144.06;5118943;27;20114;-77
2023/12/12 02:47:47;;;;;;;13.13;7.03;;;;;;;6.28;100.00;97160.47;5119291;27;20026;-78
2023/12/12 02:50:13;;;;;;;17.65;6.75;;;;;;;6.23;100.00;97141.25;5136202;27;20167;-78
2023/12/12 02:52:39;;;;;;;17.33;7.15;;;;;;;6.16;100.00;97154.91;5134057;27;20066;-80
2023/12/12 02:55:05;;;;;;;17.85;7.80;;;;;;;6.07;100.00;97144.75;5106968;27;20378;-80
2023/12/12 02:57:30;;;;;;;15.85;7.80;;;;;;;6.31;100.00;97159.44;5115463;27;20024;-79
2023/12/12 02:59:56;;;;;;;14.80;7.05;;;;;;;6.36;100.00;97157.44;5126265;27;20121;-79
2023/12/12 03:02:22;;;;;;;16.08;6.45;;;;;;;6.48;100.00;97146.16;5119074;27;20026;-81
2023/12/12 03:04:47;;;;;;;11.10;5.25;;;;;;;6.66;100.00;97139.00;5154397;27;20030;-80
2023/12/12 03:07:13;;;;;;;13.07;5.68;;;;;;;6.91;100.00;97128.78;5154409;27;20079;-80
2023/12/12 03:09:39;;;;;;;19.77;8.18;;;;;;;6.96;100.00;97122.28;5135738;27;20034;-79
2023/12/12 03:12:05;;;;;;;14.95;7.55;;;;;;;7.08;100.00;97134.03;5118814;27;20022;-80
2023/12/12 03:14:31;;;;;;;15.25;7.32;;;;;;;7.18;100.00;97121.97;5111629;27;20031;-80
2023/12/12 03:16:57;;;;;;;18.73;9.27;;;;;;;7.35;100.00;97126.34;5135446;27;20030;-79
2023/12/12 03:19:24;;;;;;;16.85;8.15;;;;;;;7.26;100.00;97125.03;5135815;27;20030;-79
2023/12/12 03:21:50;;;;;;;13.15;7.25;;;;;;;7.23;100.00;97130.53;5118500;27;20062;-79
2023/12/12 03:24:18;;;;;;;15.07;7.25;;;;;;;7.16;100.00;97130.97;5154224;27;20106;-80
2023/12/12 03:26:44;;;;;;;15.07;5.93;;;;;;;7.37;100.00;97133.31;5134623;27;20429;-80
2023/12/12 03:29:10;;;;;;;17.08;7.18;;;;;;;7.09;100.00;97118.00;5118487;27;20033;-80
2023/12/12 03:31:35;;;;;;;11.43;5.90;;;;;;;7.24;100.00;97110.13;5135670;27;20101;-79
2023/12/12 03:34:01;;;;;;;16.98;6.85;;;;;;;7.23;100.00;97119.06;5135341;27;20887;-79
2023/12/12 03:36:27;;;;;;;16.33;6.03;;;;;;;7.16;100.00;97117.69;5153967;27;20037;-81
2023/12/12 03:38:53;;;;;;;14.98;7.30;;;;;;;7.29;100.00;97132.03;5116576;27;20035;-80
2023/12/12 03:41:18;;;;;;;19.88;9.65;;;;;;;7.30;100.00;97128.41;5135518;27;20076;-81
2023/12/12 03:43:44;;;;;;;25.02;10.43;;;;;;;7.28;100.00;97135.63;5134890;27;20522;-79
2023/12/12 03:46:16;;;;;;;26.02;10.60;;;;;;;7.24;100.00;97137.59;5135684;27;20066;-81
2023/12/12 03:48:42;;;;;;;;;;;;;;;7.27;100.00;97131.22;5135672;27;20046;-79
2023/12/12 03:51:09;;;;;;;25.92;10.15;;;;;;;7.42;100.00;97133.03;5117896;27;19961;-79
2023/12/12 03:53:35;;;;;;;13.25;6.60;;;;;;;7.42;100.00;97133.88;5135295;27;20030;-80
2023/12/12 03:56:01;;;;;;;20.25;7.13;;;;;;;7.41;100.00;97134.00;5117623;27;20022;-80
2023/12/12 03:58:27;;;;;;;23.42;7.78;;;;;;;7.42;100.00;97141.88;5135011;27;20041;-79
2023/12/12 04:00:53;;;;;;;23.05;9.52;;;;;;;7.47;100.00;97149.63;5134855;27;20042;-80
2023/12/12 04:03:18;;;;;;;16.27;8.13;;;;;;;7.39;100.00;97159.81;5117778;27;20026;-81
2023/12/12 04:05:44;;;;;;;18.17;8.38;;;;;;;7.26;100.00;97158.78;5126087;27;20464;-78
2023/12/12 04:08:10;;;;;;;16.23;6.70;;;;;;;7.35;100.00;97155.63;5116247;27;20050;-80
2023/12/12 04:10:36;;;;;;;15.02;6.10;;;;;;;7.55;100.00;97158.88;5111745;27;20549;-81
2023/12/12 04:13:08;;;;;;;12.65;4.50;;;;;;;7.83;100.00;97147.53;5116047;27;20086;-83
2023/12/12 04:15:34;;;;;;;13.70;4.90;;;;;;;8.04;100.00;97156.94;5135789;27;20018;-80
2023/12/12 04:18:02;;;;;;;14.57;5.95;;;;;;;8.09;100.00;97154.84;5134768;27;20031;-81
2023/12/12 04:20:43;;;;;;;25.42;7.85;;;;;;;8.24;100.00;97152.25;5110998;27;20026;-81
2023/12/12 04:23:13;;;;;;;11.93;5.70;;;;;;;8.15;100.00;97156.31;5151315;27;20525;-83
2023/12/12 04:25:42;;;;;;;11.18;4.22;;;;;;;7.94;100.00;97158.41;5153784;27;20027;-80
2023/12/12 04:28:32;;;;;;;13.90;3.88;;;;;;;8.28;100.00;97161.78;5115802;27;20118;-82
2023/12/12 04:31:18;;;;;;;7.53;3.35;;;;;;;8.56;100.00;97153.88;5132273;27;20069;-82
2023/12/12 04:34:04;;;;;;;4.95;2.72;;;;;;;8.59;100.00;97148.34;5112719;27;20083;-83
2023/12/12 04:36:33;;;;;;;11.77;3.30;;;;;;;8.77;100.00;97139.22;5153169;27;20061;-82
2023/12/12 04:39:27;;;;;;;4.95;3.15;;;;;;;8.99;100.00;97152.97;5152486;27;20105;-81
2023/12/12 04:41:56;;;;;;;8.00;3.92;;;;;;;8.93;100.00;97125.81;5135543;27;20175;-76
2023/12/12 04:44:32;;;;;;;5.43;3.00;;;;;;;8.98;100.00;97143.25;5117945;27;20583;-83
2023/12/12 04:47:13;;;;;;;7.55;3.92;;;;;;;8.99;100.00;97144.97;5153678;27;20026;-79
2023/12/12 04:49:39;;;;;;;9.02;4.20;;;;;;;9.10;100.00;97161.19;5145743;27;20022;-81
2023/12/12 04:52:06;;;;;;;7.68;4.20;;;;;;;9.13;100.00;97170.78;5133236;27;20049;-81
2023/12/12 04:54:34;;;;;;;10.80;5.25;;;;;;;9.07;100.00;97176.50;5117051;27;20026;-80
2023/12/12 04:57:09;;;;;;;15.77;6.03;;;;;;;8.87;100.00;97183.06;5136690;27;20029;-82
2023/12/12 04:59:50;;;;;;;;;;;;;;;;;;;;;
2023/12/12 05:02:41;;;;;;;16.38;5.20;;;;;;;8.81;100.00;97187.91;5115943;27;20622;-81
2023/12/12 05:05:21;;;;;;;30.05;10.38;;;;;;;8.77;100.00;97192.56;5131924;27;20113;-80
2023/12/12 05:08:00;;;;;;;13.10;6.43;;;;;;;8.62;100.00;97198.81;5092273;27;20585;-81
2023/12/12 05:10:41;;;;;;;20.60;8.95;;;;;;;8.46;100.00;97184.72;5114170;27;20019;-76
2023/12/12 05:13:37;;;;;;;25.83;8.50;;;;;;;8.56;100.00;97207.19;5132205;27;20027;-80
2023/12/12 05:16:17;;;;;;;16.98;6.95;;;;;;;8.57;100.00;97206.25;5111031;27;20535;-81
2023/12/12 05:18:56;;;;;;;18.08;7.95;;;;;;;8.58;100.00;97221.28;5109579;27;20031;-79
2023/12/12 05:21:29;;;;;;;16.83;7.15;;;;;;;8.57;100.00;97208.91;5110550;28;20148;-82
2023/12/12 05:24:24;;;;;;;10.85;4.65;;;;;;;8.68;100.00;97203.78;5113324;28;20061;-79
2023/12/12 05:26:55;;;;;;;11.07;5.03;;;;;;;8.62;100.00;97191.69;5092467;28;20066;-81
2023/12/12 05:29:35;;;;;;;8.60;4.63;;;;;;;8.70;100.00;97194.72;5092113;28;20066;-81
2023/12/12 05:32:24;;;;;;;14.88;7.57;;;;;;;9.01;100.00;97223.06;5108437;28;20027;-82
2023/12/12 05:35:12;;;;;;;21.88;10.05;;;;;;;9.11;100.00;97210.91;5110841;28;20039;-82
2023/12/12 05:37:56;;;;;;;43.22;20.55;;;;;;;9.27;100.00;97225.00;5096118;28;20027;-79
2023/12/12 05:40:27;;;;;;;31.75;14.63;;;;;;;9.25;100.00;97220.72;5106876;27;20096;-78
2023/12/12 05:43:01;;;;;;;26.35;13.98;;;;;;;9.23;100.00;97226.16;5109210;28;20046;-77
2023/12/12 05:45:31;;;;;;;34.85;17.20;;;;;;;9.17;100.00;97223.84;5090235;28;20134;-77
2023/12/12 05:48:05;;;;;;;22.98;7.35;;;;;;;9.20;100.00;97215.66;5094650;28;20042;-78
2023/12/12 05:50:40;;;;;;;20.10;9.95;;;;;;;9.25;100.00;97208.25;5090522;27;20468;-77
2023/12/12 05:53:19;;;;;;;28.42;11.10;;;;;;;9.04;100.00;97188.25;5097493;27;20042;-79
2023/12/12 05:55:48;;;;;;;16.08;7.95;;;;;;;9.10;100.00;97182.53;5106313;27;20545;-78
2023/12/12 05:58:20;;;;;;;11.57;6.55;;;;;;;9.13;100.00;97185.00;5100095;27;20038;-79
2023/12/12 06:00:51;;;;;;;21.50;7.28;;;;;;;9.17;100.00;97186.50;5111841;27;20125;-77
2023/12/12 06:03:31;;;;;;;14.02;5.95;;;;;;;9.38;100.00;97189.66;5116051;27;20039;-78
2023/12/12 06:06:02;;;;;;;19.85;6.78;;;;;;;9.32;100.00;97192.69;5127578;27;20040;-78
2023/12/12 06:08:39;;;;;;;16.40;7.23;;;;;;;9.39;100.00;97203.84;5116557;27;20035;-77
2023/12/12 06:11:26;;;;;;;;;;;;;;;;;;;;;
2023/12/12 06:14:07;;;;;;;88.72;45.58;;;;;;;9.66;100.00;97223.44;5152347;27;20025;-79
2023/12/12 06:16:38;;;;;;;13.05;5.80;;;;;;;9.68;100.00;97213.56;5135896;27;20229;-78
2023/12/12 06:19:07;;;;;;;21.02;9.07;;;;;;;9.84;100.00;97216.97;5137188;27;20033;-79
2023/12/12 06:21:38;;;;;;;15.57;6.85;;;;;;;10.06;100.00;97224.44;5119534;27;20030;-77
2023/12/12 06:24:17;;;;;;;12.83;5.57;;;;;;;10.06;100.00;97217.25;5102687;27;20034;-77
2023/12/12 06:26:54;;;;;;;13.60;7.38;;;;;;;9.96;100.00;97208.16;5137257;27;20754;-77
2023/12/12 06:29:42;;;;;;;13.35;6.30;;;;;;;10.08;100.00;97219.84;5139378;27;20027;-78
2023/12/12 06:32:17;;;;;;;13.63;6.35;;;;;;;10.01;100.00;97211.38;5137362;27;20109;-78
2023/12/12 06:34:57;;;;;;;11.43;5.80;;;;;;;9.90;100.00;97216.56;5137664;27;20541;-77
2023/12/12 06:37:27;;;;;;;13.25;6.65;;;;;;;9.99;100.00;97215.97;5115421;27;20101;-77
2023/12/12 06:40:03;;;;;;;26.85;7.43;;;;;;;9.87;100.00;97216.75;5136814;27;20031;-77
2023/12/12 06:42:46;;;;;;;17.40;6.32;;;;;;;10.33;100.00;97217.31;5137202;27;20026;-80
2023/12/12 06:45:15;;;;;;;44.85;18.77;;;;;;;11.91;100.00;97220.50;5127023;27;20121;-78
2023/12/12 06:47:46;;;;;;;108.00;40.28;;;;;;;13.82;88.83;97193.19;5119074;27;20366;-77
2023/12/12 06:50:17;;;;;;;49.85;20.17;;;;;;;14.95;75.63;97184.72;5115224;27;20031;-77
2023/12/12 06:52:49;;;;;;;68.80;27.48;;;;;;;15.56;66.33;97173.06;5118966;27;20030;-78
2023/12/12 06:55:25;;;;;;;96.75;35.95;;;;;;;15.64;68.93;97175.06;5119089;27;20031;-76
2023/12/12 06:57:55;;;;;;;69.57;28.30;;;;;;;16.15;64.36;97180.38;5126366;27;20106;-78
2023/12/12 07:00:31;;;;;;;48.13;19.23;;;;;;;16.44;65.11;97173.16;5115817;27;20075;-77
2023/12/12 07:03:06;;;;;;;47.20;20.88;;;;;;;17.79;58.79;97163.91;5112347;27;20035;-76
2023/12/12 07:05:41;;;;;;;74.47;23.27;;;;;;;18.60;54.63;97164.91;5131921;27;20091;-78
2023/12/12 07:08:24;;;;;;;71.20;27.20;;;;;;;19.23;51.47;97162.91;5150743;27;20056;-79
2023/12/12 07:10:55;;;;;;;71.55;28.98;;;;;;;18.75;52.39;97160.63;5136051;27;20118;-78
2023/12/12 07:13:25;;;;;;;42.50;17.52;;;;;;;18.83;50.50;97178.81;5117253;27;20054;-78
2023/12/12 07:16:10;;;;;;;40.58;19.40;;;;;;;17.18;53.57;97187.81;5105466;27;20069;-78
2023/12/12 07:18:47;;;;;;;37.10;19.77;;;;;;;16.29;57.42;97190.75;5134159;27;20034;-77
2023/12/12 07:21:21;;;;;;;72.32;28.75;;;;;;;15.29;64.58;97218.53;5153238;27;20402;-77
2023/12/12 07:23:55;;;;;;;25.48;10.85;;;;;;;13.90;73.53;97224.88;5129442;27;20026;-77
2023/12/12 07:26:30;;;;;;;20.65;10.27;;;;;;;13.46;80.54;97239.13;5106244;27;20023;-77
2023/12/12 07:29:05;;;;;;;16.00;7.95;;;;;;;12.45;88.36;97243.31;5115239;27;20037;-78
2023/12/12 07:31:39;;;;;;;19.33;10.65;;;;;;;12.23;96.03;97253.03;5137781;27;20485;-77
2023/12/12 07:34:09;;;;;;;38.00;10.52;;;;;;;12.33;94.29;97248.72;5153729;27;20487;-79
2023/12/12 07:36:39;;;;;;;46.88;13.20;;;;;;;12.41;98.93;97254.34;5118481;27;20030;-77
2023/12/12 07:39:18;;;;;;;36.45;14.38;;;;;;;12.71;98.36;97264.63;5136011;27;20030;-77
2023/12/12 07:41:50;;;;;;;36.53;13.23;;;;;;;12.73;94.86;97260.03;5153469;27;20190;-77
2023/12/12 07:44:19;;;;;;;34.78;17.85;;;;;;;12.14;98.92;97264.44;5117413;27;20027;-78
2023/12/12 07:46:49;;;;;;;54.03;19.13;;;;;;;12.27;100.00;97271.47;5117667;27;20026;-76
2023/12/12 07:49:17;;;;;;;50.75;22.25;;;;;;;12.01;100.00;97267.13;5115422;27;20485;-77
2023/12/12 07:51:44;;;;;;;38.70;15.45;;;;;;;11.84;100.00;97270.19;5128405;27;20109;-78
2023/12/12 07:54:13;;;;;;;36.50;17.13;;;;;;;12.34;100.00;97269.19;5117850;27;20038;-78
2023/12/12 07:56:59;;;;;;;51.67;23.38;;;;;;;12.48;100.00;97264.53;5135148;27;20573;-77
2023/12/12 07:59:28;;;;;;;37.35;13.02;;;;;;;12.27;100.00;97274.16;5109406;27;20039;-76
2023/12/12 08:01:59;;;;;;;26.50;9.63;;;;;;;12.71;100.00;97280.72;5113040;27;20038;-76
2023/12/12 08:04:33;;;;;;;19.02;8.80;;;;;;;12.85;99.85;97270.69;5117521;27;20036;-77
2023/12/12 08:07:06;;;;;;;28.83;13.35;;;;;;;12.88;96.98;97264.22;5117605;27;20033;-75
2023/12/12 08:09:41;;;;;;;26.58;12.32;;;;;;;12.71;98.24;97262.81;5134097;27;20119;-78
2023/12/12 08:12:09;;;;;;;54.92;17.25;;;;;;;12.19;100.00;97265.81;5134209;27;20493;-77
2023/12/12 08:14:41;;;;;;;66.30;19.75;;;;;;;12.17;100.00;97283.84;5116201;27;20058;-77
2023/12/12 08:17:09;;;;;;;54.30;18.77;;;;;;;12.26;100.00;97274.25;5117618;27;20058;-77
2023/12/12 08:19:38;;;;;;;52.45;16.17;;;;;;;12.16;100.00;97266.03;5115643;27;20071;-77
2023/12/12 08:22:08;;;;;;;68.28;19.85;;;;;;;12.37;100.00;97277.00;5117256;27;20407;-76
2023/12/12 08:24:43;;;;;;;39.50;16.05;;;;;;;12.63;100.00;97273.25;5116843;27;20035;-76
2023/12/12 08:27:13;;;;;;;23.23;11.93;;;;;;;12.78;96.71;97265.88;5134262;27;20029;-76
2023/12/12 08:29:47;;;;;;;51.38;27.33;;;;;;;13.40;93.94;97255.75;5134532;27;20027;-76
2023/12/12 08:32:16;;;;;;;21.00;11.10;;;;;;;13.39;92.37;97257.56;5130044;27;20084;-77
2023/12/12 08:34:51;;;;;;;33.72;12.05;;;;;;;13.23;95.72;97259.72;5133894;27;20521;-78
2023/12/12 08:37:24;;;;;;;26.42;11.07;;;;;;;13.26;98.43;97254.09;5116849;27;20484;-77
2023/12/12 08:39:53;;;;;;;16.58;7.88;;;;;;;13.39;91.81;97251.34;5116706;27;20059;-76
2023/12/12 08:42:22;;;;;;;38.28;20.80;;;;;;;13.78;93.82;97247.34;5116846;27;20026;-76
2023/12/12 08:44:53;;;;;;;30.77;15.23;;;;;;;13.68;93.30;97251.75;5101682;28;20096;-77
2023/12/12 08:47:28;;;;;;;40.75;17.58;;;;;;;13.94;90.57;97251.38;5128770;27;20592;-78
2023/12/12 08:49:56;;;;;;;38.67;18.67;;;;;;;14.15;86.38;97251.47;5111288;27;20027;-77
2023/12/12 08:52:34;;;;;;;49.05;19.17;;;;;;;15.70;82.90;97241.94;5122983;27;20507;-78
2023/12/12 08:55:03;;;;;;;;;;;;;;;18.03;64.46;97219.34;5111646;27;20079;-78
2023/12/12 08:57:30;;;;;;;11.85;5.68;;;;;;;19.83;53.64;97180.13;5133961;27;19960;-78
2023/12/12 08:59:58;;;;;;;20.77;11.82;;;;;;;20.84;49.60;97176.44;5116190;27;20535;-78
2023/12/12 09:02:26;;;;;;;7.60;5.35;;;;;;;22.00;46.10;97165.16;5116326;27;20129;-78
2023/12/12 09:04:58;;;;;;;13.43;8.10;;;;;;;23.47;42.81;97150.47;5117403;27;20051;-77
2023/12/12 09:07:26;;;;;;;9.50;4.68;;;;;;;24.12;39.26;97138.88;5116481;27;20030;-77
2023/12/12 09:09:55;;;;;;;9.98;4.63;;;;;;;22.58;41.14;97150.25;5121352;27;20050;-77
2023/12/12 09:12:30;;;;;;;6.13;3.60;;;;;;;21.98;43.46;97164.50;5117125;27;20056;-77
2023/12/12 09:14:59;;;;;;;4.38;2.45;;;;;;;22.34;41.60;97167.59;5113103;27;20031;-79
2023/12/12 09:17:33;;;;;;;9.23;2.95;;;;;;;21.23;42.96;97173.09;5130356;27;20019;-77
2023/12/12 09:20:04;;;;;;;4.13;2.80;;;;;;;21.66;43.36;97177.34;5102977;28;20026;-77
2023/12/12 09:22:32;;;;;;;7.20;2.85;;;;;;;22.99;40.93;97151.72;5095904;27;20030;-77
2023/12/12 09:24:59;;;;;;;7.13;4.10;;;;;;;22.81;40.32;97159.34;5126462;27;20026;-77
2023/12/12 09:27:27;;;;;;;5.03;3.15;;;;;;;23.09;41.16;97160.53;5095822;28;20051;-78
2023/12/12 09:29:55;;;;;;;6.60;3.47;;;;;;;23.26;39.75;97152.22;5101648;27;20042;-77
2023/12/12 09:32:24;;;;;;;3.45;2.00;;;;;;;22.60;40.38;97165.41;5095727;28;20035;-77
2023/12/12 09:34:52;;;;;;;4.32;2.25;;;;;;;21.13;42.14;97159.69;5103860;27;20035;-76
2023/12/12 09:37:22;;;;;;;13.63;3.90;;;;;;;19.50;46.76;97183.66;5095819;27;20084;-78
2023/12/12 09:39:53;;;;;;;4.63;2.50;;;;;;;20.31;45.26;97178.69;5113138;27;20541;-76
2023/12/12 09:42:34;;;;;;;4.03;2.20;;;;;;;21.69;43.06;97163.38;5095864;28;20449;-76
2023/12/12 09:45:16;;;;;;;4.25;2.53;;;;;;;22.77;41.41;97166.19;5096179;27;20485;-77
2023/12/12 09:47:50;;;;;;;3.03;2.33;;;;;;;23.73;39.44;97158.25;5117325;27;20477;-78
2023/12/12 09:50:19;;;;;;;4.43;2.75;;;;;;;23.96;38.81;97159.03;5111108;28;20107;-76
2023/12/12 09:52:48;;;;;;;4.45;2.20;;;;;;;24.32;37.62;97155.56;5114436;27;20441;-78
2023/12/12 09:55:19;;;;;;;5.45;3.20;;;;;;;24.07;37.94;97155.84;5116150;27;20030;-78
2023/12/12 09:57:47;;;;;;;5.75;2.83;;;;;;;23.41;38.81;97150.41;5114918;27;20038;-77
2023/12/12 10:00:18;;;;;;;5.22;1.90;;;;;;;22.90;39.57;97147.34;5100652;28;20045;-77
2023/12/12 10:02:50;;;;;;;7.55;3.22;;;;;;;24.22;38.87;97151.25;5077709;28;20040;-76
2023/12/12 10:05:20;;;;;;;4.55;2.85;;;;;;;24.95;37.54;97142.03;5081567;28;20039;-76
2023/12/12 10:07:51;;;;;;;3.65;2.75;;;;;;;23.69;37.75;97132.34;5093815;28;20039;-77
2023/12/12 10:10:20;;;;;;;9.35;2.97;;;;;;;21.78;40.81;97152.25;5092263;28;20046;-75
2023/12/12 10:12:49;;;;;;;3.30;2.35;;;;;;;20.27;43.49;97163.75;5073344;28;20122;-76
2023/12/12 10:15:31;;;;;;;6.55;3.25;;;;;;;19.32;46.34;97169.22;5092925;28;20031;-77
2023/12/12 10:18:06;;;;;;;12.95;4.03;;;;;;;19.02;47.69;97161.53;5094632;28;20058;-77
2023/12/12 10:20:35;;;;;;;14.60;3.35;;;;;;;18.02;49.71;97177.06;5103067;28;20042;-77
2023/12/12 10:23:04;;;;;;;11.45;5.75;;;;;;;18.53;49.93;97177.34;5096035;28;20038;-76
2023/12/12 10:25:35;;;;;;;18.27;8.13;;;;;;;18.93;49.15;97182.31;5100867;28;20051;-75
2023/12/12 10:28:03;;;;;;;13.05;7.03;;;;;;;19.84;47.50;97184.53;5076847;28;20055;-77
2023/12/12 10:30:32;;;;;;;6.15;3.10;;;;;;;20.03;45.57;97176.16;5095336;28;20048;-77
2023/12/12 10:33:00;;;;;;;6.68;3.75;;;;;;;19.43;47.56;97185.31;5092468;28;20039;-76
2023/12/12 10:35:33;;;;;;;6.50;3.85;;;;;;;20.40;46.64;97193.97;5075142;28;20030;-76
2023/12/12 10:38:06;;;;;;;4.95;2.85;;;;;;;21.61;43.25;97186.00;5086699;28;20031;-76
2023/12/12 10:40:35;;;;;;;5.05;2.80;;;;;;;22.38;41.67;97174.38;5078378;28;20119;-76
2023/12/12 10:43:06;;;;;;;10.90;3.50;;;;;;;22.46;41.36;97163.44;5091103;28;20116;-76
2023/12/12 10:45:51;;;;;;;5.57;3.33;;;;;;;23.09;40.67;97146.88;5106294;28;20384;-76
2023/12/12 10:48:23;;;;;;;4.55;2.42;;;;;;;23.91;39.33;97160.63;5083524;27;20104;-76
2023/12/12 10:50:55;;;;;;;3.47;2.30;;;;;;;24.25;38.39;97161.78;5083131;27;20085;-77
2023/12/12 10:53:24;;;;;;;5.10;2.58;;;;;;;24.57;37.32;97166.00;5078795;28;20563;-78
2023/12/12 10:55:52;;;;;;;4.32;2.63;;;;;;;24.96;37.14;97154.69;5095833;27;20042;-78
2023/12/12 10:58:21;;;;;;;6.85;2.60;;;;;;;25.20;36.36;97153.44;5098577;27;20163;-77
2023/12/12 11:00:59;;;;;;;6.35;2.83;;;;;;;24.93;36.06;97151.50;5116031;27;20035;-76
2023/12/12 11:03:30;;;;;;;6.30;3.15;;;;;;;23.49;37.96;97153.03;5098468;27;20076;-75
2023/12/12 11:06:04;;;;;;;8.50;3.67;;;;;;;22.78;38.91;97143.34;5101024;28;20027;-77
2023/12/12 11:08:33;;;;;;;6.95;2.70;;;;;;;21.82;41.15;97155.47;5078187;28;20030;-77
2023/12/12 11:11:09;;;;;;;3.38;2.35;;;;;;;21.51;41.44;97150.78;5094622;28;20543;-77
2023/12/12 11:13:40;;;;;;;3.08;2.13;;;;;;;21.25;41.38;97135.69;5078200;27;20027;-76
2023/12/12 11:16:08;;;;;;;4.28;2.20;;;;;;;20.99;42.53;97133.09;5097808;27;20027;-76
2023/12/12 11:18:42;;;;;;;7.50;3.30;;;;;;;21.59;42.16;97145.31;5095294;27;20066;-76
2023/12/12 11:21:48;;;;;;;3.97;2.90;;;;;;;22.30;41.05;97140.88;5133417;27;20405;-77
2023/12/12 11:24:23;;;;;;;11.85;7.32;;;;;;;22.67;40.23;97125.50;5112851;28;20084;-76
2023/12/12 11:26:57;;;;;;;6.38;4.10;;;;;;;23.46;39.59;97117.91;5094456;28;20121;-76
2023/12/12 11:29:28;;;;;;;6.80;3.50;;;;;;;23.57;38.64;97120.19;5098921;27;20450;-75
2023/12/12 11:32:02;;;;;;;6.60;3.05;;;;;;;23.73;38.94;97117.28;5096683;27;20463;-77
2023/12/12 11:34:43;;;;;;;6.32;3.40;;;;;;;23.41;39.25;97128.56;5095148;27;20279;-75
2023/12/12 11:37:12;;;;;;;14.05;5.55;;;;;;;22.36;40.14;97126.53;5095504;28;20023;-75
2023/12/12 11:39:52;;;;;;;5.32;3.45;;;;;;;21.07;41.54;97124.97;5086687;27;20458;-76
2023/12/12 11:42:21;;;;;;;3.60;2.65;;;;;;;20.17;45.10;97147.53;5103386;28;20031;-77
2023/12/12 11:45:02;;;;;;;7.03;3.80;;;;;;;19.16;46.07;97152.88;5094894;28;20023;-78